Flight Track Log - Related Links

Times and Time Zones

All times are in EDT time to prevent confusion due to time zone crossing. See the EGF4021 flight status page for this flight to view local times or setup timezone preferences in your user account.

Time Position Orientation Groundspeed Altitude Reporting Facility
EDT Latitude Longitude Course Direction KTS MPH feet Rate Location/Type
Tue 02:16:34 PM 41.9411 -87.9111 188° South 166 191 17,000  Level Chicago Center
Tue 02:17:36 PM 41.8931 -87.9475 209° Southwest 199 229 4,400 -4,984 Descending Chicago Center
Tue 02:18:00 PM 41.7163 -87.9587 180° South  Level Estimated
Tue 02:18:38 PM 41.8256 -87.9697 194° South 240 276 6,700  Level Chicago Center
Tue 02:19:00 PM 41.6279 -87.9759 192° South  Level Estimated
Tue 02:19:40 PM 41.7486 -87.9822 187° South 274 315 8,800  Level Chicago Center
Tue 02:20:00 PM 41.5395 -87.9931 189° South  Level Estimated
Tue 02:20:42 PM 41.6706 -87.9922 185° South 282 325 11,200  Level Chicago Center
Tue 02:21:00 PM 41.4510 -88.0101 188° South  Level FlightAware Approximate
Tue 02:21:44 PM 41.5869 -88.0042 186° South 300 345 13,000  Level Chicago Center
Tue 02:22:46 PM 41.4989 -88.0169 186° South 316 364 14,600 1,645 Climbing Chicago Center
Tue 02:23:48 PM 41.3961 -88.0358 188° South 328 377 16,400 1,161 Climbing Chicago Center
Tue 02:24:50 PM 41.3022 -88.0653 193° South 350 403 17,000 288 Climbing Chicago Center
Tue 02:25:53 PM 41.1719 -88.0956 190° South 397 457 17,000 -144 Level Chicago Center
Tue 02:26:55 PM 41.0544 -88.1081 185° South 420 483 16,700 -1,065 Descending Chicago Center
Tue 02:27:57 PM 40.9389 -88.1211 185° South 422 486 14,800 -1,887 Descending Chicago Center
Tue 02:28:59 PM 40.8292 -88.1350 185° South 407 468 12,800 -1,790 Descending Chicago Center
Tue 02:30:01 PM 40.7236 -88.1475 185° South 390 449 11,100 -871 Descending Chicago Center
Tue 02:31:03 PM 40.6017 -88.1614 185° South 372 428 11,000 -48 Descending Chicago Center
Tue 02:32:05 PM 40.4972 -88.1808 188° South 377 434 11,000 -48 Level Chicago Center
Tue 02:33:07 PM 40.3983 -88.2017 189° South 367 422 10,900 -1,113 Descending Chicago Center
Tue 02:34:09 PM 40.3183 -88.2178 189° South 306 352 8,700 -2,613 Descending Chicago Center
Tue 02:35:11 PM 40.2531 -88.2611 207° Southwest 277 319 5,500 -2,661 Descending Chicago Center
Tue 02:36:13 PM 40.1858 -88.3158 212° Southwest 257 296 3,200 -1,452 Descending Chicago Center
Tue 02:37:15 PM 40.1267 -88.3344 194° South 241 277 2,500 -677 Descending Chicago Center

Login

Don't have an account? Register now (free) for customized features, flight alerts, and more!